Latest Weather Observations for Nowra

IDN60901

Issued at 9:51 pm EST Thursday 22 June 2017 (issued every 10 minutes, with the page automatically refreshed every 10 minutes)

About weather observations | Map of Canberra area stations | Latest observations for Canberra area | Other Formats
Station Details ID: 068072 Name: NOWRA RAN AIR STATION AWS Lat: -34.95 Lon: 150.54 Height: 109.0 m
Data from the previous 72 hours. | See also: Recent months at Nowra
Date/Time
EST
Temp
°C
App
Temp
°C
Dew
Point
°C
Rel
Hum
%
Delta-T
°C
Wind Press
QNH
hPa
Press
MSL
hPa
Rain since
9am
mm
Dir  Spd
km/h
Gust
km/h
Spd
kts
Gust
kts
22/09:30pm 8.4 6.3 8.3 99 0.0 WNW 9 9 5 5 1023.7 1023.7 0.0
22/09:00pm 8.7 7.2 8.6 99 0.0 WNW 6 7 3 4 1023.8 1023.8 0.0
22/08:30pm 9.3 8.0 9.2 99 0.0 W 6 9 3 5 1023.9 1023.9 0.0
22/08:00pm 9.5 8.3 9.4 99 0.0 WSW 6 7 3 4 1023.8 1023.8 0.0
22/07:30pm 10.1 8.4 10.0 99 0.1 WSW 9 9 5 5 1024.0 1024.0 0.0
22/07:00pm 9.5 8.0 9.0 97 0.2 WSW 7 9 4 5 1023.9 1023.9 0.0
22/06:30pm 9.7 7.8 9.2 97 0.2 SW 9 9 5 5 1023.8 1023.8 0.0
22/06:00pm 10.0 8.4 8.8 92 0.6 WSW 7 9 4 5 1023.9 1023.9 0.0
22/05:30pm 12.0 10.7 9.2 83 1.4 ESE 6 11 3 6 1023.7 1023.7 0.0
22/05:00pm 12.2 11.0 9.4 83 1.4 NE 6 11 3 6 1023.4 1023.4 0.0
22/04:30pm 13.3 11.4 9.2 76 2.1 NNE 9 15 5 8 1023.7 1023.7 0.0
22/04:00pm 15.4 12.5 9.5 68 3.1 NNE 15 20 8 11 1023.9 1023.9 0.0
22/03:30pm 17.1 14.4 7.2 52 5.0 N 11 15 6 8 1024.0 1024.0 0.0
22/03:00pm 17.0 14.3 7.4 53 4.8 N 11 13 6 7 1023.9 1023.9 0.0
22/02:30pm 17.3 15.1 7.9 54 4.8 NNW 9 15 5 8 1023.9 1023.9 0.0
22/02:00pm 17.0 14.4 7.9 55 4.6 N 11 17 6 9 1024.2 1024.2 0.0
22/01:30pm 16.5 13.8 7.4 55 4.6 N 11 17 6 9 1024.6 1024.6 0.0
22/01:00pm 16.5 14.8 8.5 59 4.1 N 7 13 4 7 1025.1 1025.1 0.0
22/12:30pm 16.2 14.6 8.9 62 3.8 N 7 15 4 8 1025.7 1025.7 0.0
22/12:00pm 15.6 13.1 8.4 62 3.6 N 11 17 6 9 1026.5 1026.5 0.0
22/11:30am 15.6 13.2 8.6 63 3.6 NNW 11 17 6 9 1027.1 1027.2 0.0
22/11:00am 15.6 13.3 9.1 65 3.3 NW 11 13 6 7 1027.6 1027.7 0.0
22/10:30am 15.1 13.6 9.2 68 3.0 NW 7 11 4 6 1028.1 1028.2 0.0
22/10:00am 14.3 12.5 9.5 73 2.5 NW 9 13 5 7 1028.3 1028.4 0.0
22/09:30am 13.4 11.1 9.1 75 2.2 NW 11 13 6 7 1028.4 1028.5 0.0
22/09:00am 12.6 10.3 9.1 79 1.8 NW 11 15 6 8 1028.5 1028.6 0.2
22/08:30am 11.5 9.2 9.1 85 1.2 NW 11 13 6 7 1028.5 1028.6 0.2
22/08:00am 10.3 8.8 9.2 93 0.5 WSW 7 9 4 5 1028.3 1028.4 0.2
22/07:30am 10.3 8.1 9.5 95 0.4 WNW 11 13 6 7 1028.3 1028.4 0.2
22/07:00am 10.0 8.3 9.7 98 0.1 WNW 9 11 5 6 1028.0 1028.1 0.2
22/06:30am 9.9 8.6 9.8 99 0.1 WNW 7 9 4 5 1027.8 1027.9 0.2
22/06:00am 10.0 10.0 9.9 99 0.1 CALM 0 0 0 0 1027.6 1027.7 0.2
22/05:30am 10.0 8.7 9.9 99 0.1 WNW 7 9 4 5 1027.3 1027.4 0.2
22/05:00am 10.2 8.6 10.1 99 0.1 WNW 9 9 5 5 1027.3 1027.4 0.2
22/04:30am 10.1 8.8 10.0 99 0.1 NW 7 9 4 5 1027.3 1027.4 0.2
22/04:00am 10.1 10.2 10.0 99 0.1 CALM 0 0 0 0 1027.3 1027.4 0.2
22/03:30am 11.2 10.0 10.3 94 0.5 SW 7 11 4 6 1027.2 1027.3 0.2
22/03:00am 11.3 9.7 10.2 93 0.6 WSW 9 13 5 7 1027.4 1027.5 0.2
22/02:30am 11.3 9.4 10.4 94 0.5 SW 11 13 6 7 1027.4 1027.5 0.2
22/02:00am 11.4 10.1 11.2 99 0.1 SSW 9 11 5 6 1027.7 1027.8 0.2
22/01:30am 10.7 10.0 10.1 96 0.3 SW 4 7 2 4 1027.7 1027.8 0.2
22/01:00am 11.0 9.9 10.7 98 0.2 WSW 7 9 4 5 1027.9 1028.0 0.2
22/12:39am 10.6 9.4 10.4 99 0.1 W 7 9 4 5 1028.0 1028.1 0.2
22/12:30am 10.1 8.8 9.8 98 0.2 WNW 7 9 4 5 1028.1 1028.2 0.2
22/12:12am 10.2 8.4 9.6 96 0.3 WNW 9 11 5 6 1028.2 1028.3 0.2
22/12:00am 10.3 8.6 9.8 97 0.3 WNW 9 11 5 6 1028.2 1028.3 0.2
 
Date/Time
EST
Temp
°C
App
Temp
°C
Dew
Point
°C
Rel
Hum
%
Delta-T
°C
Wind Press
QNH
hPa
Press
MSL
hPa
Rain since
9am
mm
Dir  Spd
km/h
Gust
km/h
Spd
kts
Gust
kts
21/11:30pm 10.6 9.2 9.5 93 0.6 WNW 7 9 4 5 1028.4 1028.5 0.0
21/11:00pm 10.5 10.0 9.4 93 0.5 W 2 7 1 4 1028.4 1028.5 0.0
21/10:30pm 10.2 8.0 9.4 95 0.4 W 11 15 6 8 1028.4 1028.5 0.0
21/10:00pm 10.0 7.4 9.5 97 0.2 WNW 13 17 7 9 1028.4 1028.5 0.0
21/09:30pm 9.5 7.7 9.4 99 0.0 WNW 9 11 5 6 1028.3 1028.4 0.0
21/09:00pm 8.6 6.9 8.5 99 0.0 NW 7 9 4 5 1028.3 1028.4 0.0
21/08:30pm 7.3 5.5 7.2 99 0.0 WNW 6 7 3 4 1028.3 1028.4 0.0
21/08:00pm 7.6 5.3 7.5 99 0.0 W 9 11 5 6 1028.5 1028.6 0.0
21/07:30pm 8.5 8.1 8.4 99 0.0 CALM 0 6 0 3 1028.4 1028.5 0.0
21/07:00pm 9.2 7.3 8.9 98 0.1 WSW 9 17 5 9 1028.3 1028.4 0.0
21/06:30pm 8.6 7.8 8.3 98 0.1 W 2 9 1 5 1027.8 1027.9 0.0
21/06:00pm 9.1 8.6 8.0 93 0.5 CALM 0 0 0 0 1027.4 1027.5 0.0
21/05:30pm 9.6 7.4 7.9 89 0.8 SSW 9 11 5 6 1027.2 1027.3 0.0
21/05:00pm 10.8 8.9 7.5 80 1.6 SSW 7 9 4 5 1026.6 1026.6 0.0
21/04:30pm 14.7 13.0 8.4 66 3.2 SSE 7 15 4 8 1026.2 1026.2 0.0
21/04:00pm 15.6 13.1 8.1 61 3.8 SSE 11 13 6 7 1025.9 1025.9 0.0
21/03:30pm 16.0 13.0 7.7 58 4.2 SSE 13 15 7 8 1025.8 1025.8 0.0
21/03:00pm 16.8 13.4 7.7 55 4.6 SE 15 22 8 12 1025.8 1025.8 0.0
21/02:30pm 16.8 13.3 7.4 54 4.7 SE 15 20 8 11 1025.7 1025.7 0.0
21/02:00pm 17.2 13.3 7.3 52 5.0 SSE 17 30 9 16 1025.7 1025.7 0.0
21/01:30pm 17.0 13.2 7.4 53 4.8 SSE 17 20 9 11 1025.7 1025.7 0.0
21/01:00pm 17.0 12.8 7.6 54 4.7 SSE 19 22 10 12 1025.8 1025.8 0.0
21/12:30pm 17.0 13.8 8.4 57 4.4 SE 15 20 8 11 1026.0 1026.0 0.0
21/12:00pm 16.6 13.1 8.6 59 4.1 SSE 17 32 9 17 1026.3 1026.3 0.0
21/11:30am 16.8 13.3 10.2 65 3.5 SSE 19 28 10 15 1026.7 - 0.0
21/11:00am 16.0 13.2 11.4 74 2.5 S 17 20 9 11 - - 0.0
21/10:30am 14.9 13.3 10.1 73 2.5 WNW 9 13 5 7 1027.1 1027.2 0.0
21/10:00am 12.4 9.4 7.7 73 2.3 WNW 13 17 7 9 1027.1 1027.2 0.0
21/09:30am 10.7 7.8 6.6 76 1.9 WNW 11 15 6 8 1027.1 1027.2 0.0
21/09:00am 9.9 7.3 6.1 77 1.8 NW 9 13 5 7 1026.6 1026.6 0.0
21/08:30am 9.2 6.5 5.4 77 1.7 NW 9 11 5 6 1026.3 1026.3 0.0
21/08:00am 8.4 4.5 5.3 81 1.4 WNW 15 19 8 10 1025.8 1025.8 0.0
21/07:30am 7.7 3.7 4.7 81 1.3 WNW 15 19 8 10 1025.4 1025.4 0.0
21/07:00am 7.3 3.2 4.6 83 1.2 WNW 15 19 8 10 1024.9 1024.9 0.0
21/06:30am 7.6 3.6 4.7 82 1.3 WNW 15 17 8 9 1024.5 1024.5 0.0
21/06:00am 7.8 3.7 4.6 80 1.4 WNW 15 19 8 10 1024.1 1024.1 0.0
21/05:30am 7.8 4.1 4.7 81 1.4 WNW 13 17 7 9 1023.8 1023.8 0.0
21/05:00am 7.9 4.9 4.3 78 1.6 WNW 9 17 5 9 1023.5 1023.5 0.0
21/04:30am 8.4 4.0 4.6 77 1.7 WNW 17 22 9 12 1023.3 1023.3 0.0
21/04:00am 8.5 4.2 5.1 79 1.5 WNW 17 20 9 11 1023.1 1023.1 0.0
21/03:30am 8.8 3.9 5.2 78 1.6 WNW 20 24 11 13 1023.1 1023.1 0.0
21/03:00am 8.8 3.9 5.2 78 1.6 WNW 20 24 11 13 1023.0 1023.0 0.0
21/02:30am 9.3 4.6 5.3 76 1.8 WNW 19 22 10 12 1023.1 1023.1 0.0
21/02:00am 9.8 4.6 5.6 75 1.9 WNW 22 26 12 14 1023.0 1023.0 0.0
21/01:30am 9.9 5.1 5.7 75 1.9 NW 20 26 11 14 1023.0 1023.0 0.0
21/01:00am 9.9 5.1 5.7 75 1.9 NW 20 26 11 14 1023.3 1023.3 0.0
21/12:30am 10.1 5.0 5.9 75 1.9 NW 22 28 12 15 1023.7 1023.7 0.0
21/12:00am 9.9 5.4 6.1 77 1.8 NW 19 22 10 12 1023.7 1023.7 0.0
 
Date/Time
EST
Temp
°C
App
Temp
°C
Dew
Point
°C
Rel
Hum
%
Delta-T
°C
Wind Press
QNH
hPa
Press
MSL
hPa
Rain since
9am
mm
Dir  Spd
km/h
Gust
km/h
Spd
kts
Gust
kts
20/11:30pm 9.8 5.8 6.5 80 1.5 NW 17 20 9 11 1023.9 1023.9 0.0
20/11:00pm 9.8 5.9 6.9 82 1.4 NW 17 20 9 11 1024.0 1024.0 0.0
20/10:30pm 9.9 6.4 7.3 84 1.2 NW 15 20 8 11 1024.1 1024.1 0.0
20/10:00pm 6.1 3.8 5.5 96 0.3 WNW 7 13 4 7 1024.0 1024.0 0.0
20/09:30pm 7.0 6.0 5.6 91 0.6 CALM 0 0 0 0 1024.1 1024.1 0.0
20/09:00pm 9.1 7.0 8.2 94 0.4 WNW 9 11 5 6 1024.2 1024.2 0.0
20/08:30pm 9.6 7.3 9.1 97 0.2 WNW 11 13 6 7 1024.4 1024.4 0.0
20/08:00pm 9.5 7.3 9.4 99 0.0 NW 11 11 6 6 1024.4 1024.4 0.0
20/07:30pm 8.9 7.5 8.8 99 0.0 NNW 6 9 3 5 1024.5 1024.5 0.0
20/07:00pm 9.9 9.9 9.8 99 0.1 CALM 0 0 0 0 1024.7 1024.7 0.0
20/06:30pm 10.9 10.0 10.7 99 0.1 W 6 13 3 7 1024.3 1024.3 0.0
20/06:00pm 11.2 10.4 11.0 99 0.1 W 6 11 3 6 1024.0 1024.0 0.0
20/05:30pm 11.7 11.5 10.6 93 0.6 WNW 2 7 1 4 1024.0 1024.0 0.0
20/05:00pm 13.5 12.5 11.0 85 1.3 N 7 11 4 6 1024.0 1024.0 0.0
20/04:30pm 15.0 13.6 11.0 77 2.1 N 9 11 5 6 1024.1 1024.1 0.0
20/04:00pm 16.2 13.6 10.7 70 2.9 NE 15 17 8 9 1024.1 1024.1 0.0
20/03:30pm 17.6 15.2 10.2 62 4.0 NNE 13 15 7 8 1024.1 1024.1 0.0
20/03:00pm 18.0 15.9 9.9 59 4.3 N 11 15 6 8 1024.2 1024.2 0.0
20/02:30pm 17.8 15.7 9.7 59 4.3 N 11 15 6 8 1024.4 1024.4 0.0
20/02:00pm 17.9 15.3 9.5 58 4.4 NNW 13 19 7 10 1024.7 1024.7 0.0
20/01:30pm 17.3 14.7 9.5 60 4.1 N 13 17 7 9 1025.0 1025.0 0.0
20/01:00pm 16.8 14.6 9.2 61 3.9 N 11 15 6 8 1025.5 1025.5 0.0
20/12:30pm 16.6 14.0 9.5 63 3.7 N 13 17 7 9 1026.2 1026.2 0.0
20/12:00pm 16.1 13.5 9.3 64 3.5 NW 13 19 7 10 1026.9 1026.9 0.0
20/11:30am 15.3 12.2 9.0 66 3.2 NW 15 19 8 10 1027.6 1027.7 0.0
20/11:00am 14.7 11.3 9.3 70 2.8 NW 17 20 9 11 1028.3 1028.4 0.0
20/10:30am 13.7 10.3 9.2 74 2.3 NW 17 22 9 12 1028.8 1028.9 0.0
20/10:00am 12.6 9.8 10.0 84 1.3 WNW 15 20 8 11 1029.0 1029.1 0.0
20/09:30am 11.7 7.9 9.1 84 1.3 WNW 19 22 10 12 1029.0 1029.1 0.0
20/09:00am 10.5 6.7 9.1 91 0.7 WNW 19 22 10 12 1029.1 1029.2 0.2
20/08:30am 9.4 5.9 8.6 95 0.4 WNW 17 20 9 11 1029.2 1029.3 0.2
20/08:00am 8.5 4.9 8.2 98 0.1 WNW 17 20 9 11 1029.0 1029.1 0.2
20/07:30am 8.5 4.8 8.1 97 0.2 WNW 17 19 9 10 1029.0 1029.1 0.2
20/07:00am 8.7 5.5 8.3 97 0.2 WNW 15 17 8 9 1028.9 1029.0 0.2
20/06:30am 8.8 5.7 8.7 99 0.0 WNW 15 20 8 11 1028.7 1028.8 0.2
20/06:00am 9.2 5.8 9.1 99 0.0 WNW 17 19 9 10 1028.5 1028.6 0.2
20/05:30am 9.5 6.5 9.4 99 0.0 WNW 15 17 8 9 1028.4 1028.5 0.2
20/05:02am 8.3 7.5 8.2 99 0.0 N 2 7 1 4 1028.3 1028.4 0.2
20/05:00am 8.1 7.3 8.0 99 0.0 NNW 2 9 1 5 1028.2 1028.3 0.2
20/04:30am 8.5 6.4 8.4 99 0.0 WNW 9 11 5 6 1028.1 1028.2 0.2
20/04:00am 8.4 6.3 8.3 99 0.0 WNW 9 11 5 6 1028.2 1028.3 0.2
20/03:30am 8.8 7.2 8.7 99 0.0 NW 7 9 4 5 1028.5 1028.6 0.2
20/03:00am 8.9 6.9 8.8 99 0.0 WNW 9 11 5 6 1028.7 1028.8 0.2
20/02:30am 9.2 8.6 9.1 99 0.0 NNW 2 9 1 5 1028.9 1029.0 0.0
20/02:00am 9.0 7.1 8.9 99 0.0 W 9 11 5 6 1029.0 1029.1 0.0
20/01:30am 9.5 9.4 9.4 99 0.0 CALM 0 0 0 0 1029.1 1029.2 0.0
20/01:00am 9.8 8.1 9.7 99 0.0 WNW 9 11 5 6 1029.2 1029.3 0.0
20/12:30am 10.4 8.0 10.2 99 0.1 WNW 13 15 7 8 1029.4 1029.5 0.0
20/12:00am 10.3 9.2 10.1 99 0.1 WNW 6 9 3 5 1029.6 1029.7 0.0
 
Date/Time
EST
Temp
°C
App
Temp
°C
Dew
Point
°C
Rel
Hum
%
Delta-T
°C
Wind Press
QNH
hPa
Press
MSL
hPa
Rain since
9am
mm
Dir  Spd
km/h
Gust
km/h
Spd
kts
Gust
kts
19/11:30pm 11.1 10.3 10.9 99 0.1 WNW 6 7 3 4 1029.8 1029.9 0.0
19/11:00pm 11.4 10.5 11.2 99 0.1 W 7 9 4 5 1029.9 1030.0 0.0
19/10:30pm 10.6 9.6 10.4 99 0.1 NW 6 11 3 6 1030.0 1030.1 0.0
19/10:08pm 10.5 9.3 10.3 99 0.1 WNW 7 11 4 6 1030.0 1030.1 0.0
19/10:00pm 9.6 8.2 9.5 99 0.0 WNW 7 9 4 5 1030.0 1030.1 0.0

Latest Capital City Observations: Canberra | Sydney | Melbourne | Brisbane | Adelaide | Perth | Hobart | Darwin

Other Formats:

Comma delimited format used in spreadsheet applications
http://www.bom.gov.au/fwo/IDN60903/IDN60903.94750.axf

JavaScript Object Notation format (JSON) in row-major order
http://www.bom.gov.au/fwo/IDN60903/IDN60903.94750.json